KBBB

Benson Municipal Airport

Benson, Minnesota, USA
METAR KBBB 201056Z AUTO 12008KT 10SM OVC090 M19/M25 A3036 RMK AO2
Observed Flight Rules
Jan-20 @ 10:56 UTC (5 minutes ago) Visual Flight Rules
Wind Visibility Clouds
120° at 8 knots 10 miles
  • Overcast at 9,000' AGL
Temperatures Readings
Current -19°C / -2°F
Dewpoint -25°C / -13°F
Humidity 59%
Altimeter 30.36" Hg
Pressure 1028.12 hPa
Elevation 317
METAR KBBB 201056Z AUTO 12008KT 10SM OVC090 M19/M25 A3036 RMK AO2
Observed Flight Rules
Jan-20 @ 10:56 UTC
(5 minutes ago)
VFR
Wind Visibility
120° at 8 knots 10 miles
Clouds
  • Overcast at 9,000' AGL
Temperature Dewpoint
-19°C / -2°F -25°C / -13°F
Humidity Altimeter Pressure
59% 30.36" Hg 1028.12 hPa